Dolton, Illinois
Current Conditions -  °F | °C
As of 6:35 AM on Monday 20 Oct 2014 (Local Time) from KIGQ Reporting Station
Overcast Overcast  
Wind Chill: 46°   Ceiling: 8000
Heat Index: 49°   Visibility: 10mi
Dew Point: 45°   Wind: 8mph
Humidity: 84%   Direction: 220°SW
Pressure: 29.82"   Gusts: NA
Location:  41.64°N, 87.61°W
Report Text: KIGQ 201135Z AUTO 22007KT 10SM SCT065 BKN080 OVC120 10/07 A2982 RMK AO2 LTG DSNT N T00950070
Loading
Personal Weather Stations






























Interactive Weather Map
Tropical Storm Tracking
New forecast layout! Learn more

10-Day Weather Forecast

Advertisements
Track Severe Weather on mobile